Time;durP1;ratioP1;P1;durP2;ratioP2;P2;SDS_P1;SDS_P2;PMS_P1;PMS_P2;Temp;Humidity;BMP_temperature;BMP_pressure;BME280_temperature;BME280_humidity;BME280_pressure;Samples;Min_cycle;Max_cycle;Signal;HPM_P1;HPM_P2
2023/05/22 00:00:37;;;;;;;25.40;20.58;;;;;;;17.44;79.42;101287.50;4834566;29;20030;-82
2023/05/22 00:03:03;;;;;;;23.70;20.10;;;;;;;17.40;79.49;101289.88;4826204;29;20042;-81
2023/05/22 00:05:29;;;;;;;24.92;20.48;;;;;;;17.37;80.21;101287.63;4826717;29;20471;-82
2023/05/22 00:07:54;;;;;;;23.73;20.33;;;;;;;17.27;80.67;101277.28;4826723;29;20037;-81
2023/05/22 00:10:20;;;;;;;23.30;20.02;;;;;;;17.25;80.61;101282.13;4831728;29;20124;-82
2023/05/22 00:12:45;;;;;;;29.85;21.65;;;;;;;17.21;80.78;101277.38;4834376;29;20033;-82
2023/05/22 00:15:10;;;;;;;23.20;19.85;;;;;;;17.19;80.46;101280.34;4826641;29;20034;-82
2023/05/22 00:17:36;;;;;;;24.45;20.83;;;;;;;17.16;80.40;101279.97;4828448;29;20026;-81
2023/05/22 00:20:09;;;;;;;26.02;20.75;;;;;;;17.13;80.31;101276.63;4829004;29;20034;-82
2023/05/22 00:22:35;;;;;;;28.23;22.50;;;;;;;17.12;80.42;101274.97;4826692;29;20148;-81
2023/05/22 00:25:04;;;;;;;26.10;21.13;;;;;;;17.10;80.23;101282.56;4825818;29;20113;-82
2023/05/22 00:27:29;;;;;;;25.33;20.95;;;;;;;17.07;80.59;101263.97;4831190;29;20051;-81
2023/05/22 00:29:55;;;;;;;27.80;22.48;;;;;;;17.05;80.50;101268.81;4824635;29;20038;-82
2023/05/22 00:32:20;;;;;;;28.30;22.45;;;;;;;17.04;80.70;101269.88;4822041;29;20086;-81
2023/05/22 00:34:46;;;;;;;23.88;21.13;;;;;;;17.01;80.65;101258.63;4823738;29;20038;-82
2023/05/22 00:37:11;;;;;;;26.88;21.92;;;;;;;16.95;80.88;101263.94;4827778;29;20034;-82
2023/05/22 00:39:37;;;;;;;29.58;22.15;;;;;;;16.94;80.81;101266.84;4825166;29;20027;-81
2023/05/22 00:42:02;;;;;;;29.27;21.80;;;;;;;16.93;81.00;101257.03;4833035;29;20037;-81
2023/05/22 00:44:28;;;;;;;27.95;22.38;;;;;;;16.90;81.30;101254.78;4830948;29;20026;-82
2023/05/22 00:46:53;;;;;;;26.60;21.98;;;;;;;16.87;81.38;101253.31;4825406;29;20070;-81
2023/05/22 00:49:19;;;;;;;29.38;23.25;;;;;;;16.83;81.42;101247.50;4823785;29;20478;-82
2023/05/22 00:51:44;;;;;;;29.67;23.33;;;;;;;16.80;81.87;101261.56;4821897;29;20042;-82
2023/05/22 00:54:10;;;;;;;25.67;21.58;;;;;;;16.78;81.90;101255.53;4808690;29;20026;-82
2023/05/22 00:56:36;;;;;;;27.95;23.00;;;;;;;16.76;82.17;101260.38;4789658;29;20129;-82
2023/05/22 00:59:01;;;;;;;27.00;21.30;;;;;;;16.75;82.18;101252.44;4823464;29;20564;-82
2023/05/22 01:01:32;;;;;;;28.13;21.60;;;;;;;16.73;82.52;101255.41;4824140;29;20041;-81
2023/05/22 01:03:58;;;;;;;27.77;22.25;;;;;;;16.74;82.02;101245.34;4795554;29;20558;-81
2023/05/22 01:06:24;;;;;;;26.15;22.33;;;;;;;16.74;82.08;101240.75;4812025;29;20030;-82
2023/05/22 01:08:49;;;;;;;28.27;21.90;;;;;;;16.73;82.26;101236.38;4831816;29;20036;-82
2023/05/22 01:11:26;;;;;;;26.13;22.30;;;;;;;16.72;82.33;101237.44;4830051;29;20035;-82
2023/05/22 01:14:22;;;;;;;25.08;20.13;;;;;;;16.73;81.90;101236.38;4813002;29;20550;-82
2023/05/22 01:17:07;;;;;;;26.45;22.27;;;;;;;16.74;82.08;101234.47;4816130;29;20038;-82
2023/05/22 01:19:52;;;;;;;29.03;22.10;;;;;;;16.70;82.30;101239.53;4828159;29;20106;-82
2023/05/22 01:22:57;;;;;;;26.60;22.10;;;;;;;16.66;82.44;101232.88;4807856;29;20093;-82
2023/05/22 01:25:41;;;;;;;26.90;21.88;;;;;;;16.68;82.55;101238.94;4816441;29;20463;-82
2023/05/22 01:28:43;;;;;;;26.63;21.75;;;;;;;16.72;82.28;101236.56;4834544;29;20153;-82
2023/05/22 01:31:11;;;;;;;27.23;22.73;;;;;;;16.70;82.71;101244.13;4835758;29;20487;-82
2023/05/22 01:33:45;;;;;;;26.92;21.50;;;;;;;16.74;82.72;101240.75;4835475;29;20624;-82
2023/05/22 01:36:10;;;;;;;29.17;22.05;;;;;;;16.79;82.45;101237.34;4813248;29;20045;-82
2023/05/22 01:38:35;;;;;;;28.02;22.35;;;;;;;16.77;82.71;101244.88;4821354;29;20037;-82
2023/05/22 01:41:01;;;;;;;28.75;21.77;;;;;;;16.72;82.82;101242.84;4810737;29;20057;-82
2023/05/22 01:43:26;;;;;;;29.58;23.35;;;;;;;16.76;82.80;101245.94;4794474;29;20062;-84
2023/05/22 01:45:52;;;;;;;47.17;26.85;;;;;;;16.70;84.70;101231.38;4809701;29;20034;-80
2023/05/22 01:48:17;;;;;;;32.15;22.60;;;;;;;16.66;85.48;101235.59;4830605;29;20033;-79
2023/05/22 01:50:44;;;;;;;30.20;24.00;;;;;;;16.63;85.17;101230.63;4835374;29;20042;-78
2023/05/22 01:53:17;;;;;;;30.33;23.17;;;;;;;16.61;85.24;101230.88;4823565;29;20147;-78
2023/05/22 01:55:54;;;;;;;29.85;22.80;;;;;;;16.57;85.20;101228.84;4834509;29;20041;-81
2023/05/22 01:58:38;;;;;;;31.00;24.73;;;;;;;16.51;85.27;101225.13;4828884;29;20098;-81
2023/05/22 02:01:04;;;;;;;28.27;23.27;;;;;;;16.50;85.39;101228.91;4827490;29;20222;-79
2023/05/22 02:03:30;;;;;;;29.88;23.88;;;;;;;16.44;85.82;101230.63;4806818;29;20108;-80
2023/05/22 02:05:56;;;;;;;30.73;24.13;;;;;;;16.39;86.04;101225.06;4824631;29;20037;-80
2023/05/22 02:08:24;;;;;;;30.35;24.38;;;;;;;16.38;86.23;101220.69;4811955;29;20044;-80
2023/05/22 02:10:50;;;;;;;29.85;24.17;;;;;;;16.33;86.12;101210.47;4829225;29;20602;-80
2023/05/22 02:13:15;;;;;;;30.05;24.90;;;;;;;16.35;86.24;101215.72;4826188;29;20033;-79
2023/05/22 02:15:45;;;;;;;30.85;24.23;;;;;;;16.35;85.86;101213.00;4813764;29;20121;-80
2023/05/22 02:18:13;;;;;;;30.98;24.92;;;;;;;16.33;86.00;101217.81;4809603;29;20030;-80
2023/05/22 02:20:39;;;;;;;30.33;24.35;;;;;;;16.30;86.15;101216.41;4830268;29;20150;-79
2023/05/22 02:23:05;;;;;;;26.58;22.73;;;;;;;16.34;86.90;101224.91;4836456;29;20045;-80
2023/05/22 02:25:30;;;;;;;27.48;22.98;;;;;;;16.35;86.63;101210.28;4832431;29;20022;-80
2023/05/22 02:27:55;;;;;;;28.27;23.13;;;;;;;16.33;86.92;101207.75;4828642;29;20716;-80
2023/05/22 02:30:21;;;;;;;26.15;22.48;;;;;;;16.33;86.95;101196.09;4831493;29;20050;-79
2023/05/22 02:32:46;;;;;;;27.75;24.08;;;;;;;16.34;86.97;101186.88;4832087;29;20042;-80
2023/05/22 02:35:12;;;;;;;25.50;21.45;;;;;;;16.32;86.58;101178.13;4825195;29;20033;-80
2023/05/22 02:37:37;;;;;;;27.33;22.42;;;;;;;16.32;86.67;101183.56;4828891;29;20034;-80
2023/05/22 02:40:06;;;;;;;24.75;21.85;;;;;;;16.29;86.29;101178.56;4833428;29;20497;-80
2023/05/22 02:42:31;;;;;;;27.85;22.98;;;;;;;16.30;86.09;101177.50;4828378;29;20532;-79
2023/05/22 02:44:56;;;;;;;25.52;21.63;;;;;;;16.29;86.28;101175.84;4826363;29;20110;-79
2023/05/22 02:47:22;;;;;;;27.90;23.15;;;;;;;16.28;86.45;101171.47;4833022;29;20034;-80
2023/05/22 02:49:50;;;;;;;26.48;21.73;;;;;;;16.26;86.69;101170.88;4829153;29;20553;-79
2023/05/22 02:52:16;;;;;;;27.58;22.27;;;;;;;16.23;87.09;101168.63;4833516;29;20033;-80
2023/05/22 02:54:41;;;;;;;26.23;22.33;;;;;;;16.18;87.22;101163.84;4828009;29;20018;-80
2023/05/22 02:57:06;;;;;;;28.30;21.65;;;;;;;16.13;86.94;101164.53;4828932;29;20420;-80
2023/05/22 02:59:32;;;;;;;27.23;21.90;;;;;;;16.12;87.19;101168.31;4828248;29;20038;-80
2023/05/22 03:01:57;;;;;;;26.98;22.23;;;;;;;16.07;87.53;101173.59;4829660;29;20034;-80
2023/05/22 03:04:23;;;;;;;25.77;21.48;;;;;;;16.03;87.41;101169.69;4830680;29;20614;-80
2023/05/22 03:06:49;;;;;;;28.25;23.70;;;;;;;15.94;87.79;101173.72;4826964;29;20428;-80
2023/05/22 03:09:15;;;;;;;31.23;24.27;;;;;;;15.93;88.26;101180.22;4829870;29;20086;-80
2023/05/22 03:11:40;;;;;;;26.75;22.35;;;;;;;15.87;88.75;101176.53;4827310;29;20090;-80
2023/05/22 03:14:05;;;;;;;28.20;24.00;;;;;;;15.84;88.88;101176.94;4826986;29;20477;-80
2023/05/22 03:16:31;;;;;;;28.92;23.75;;;;;;;15.77;88.97;101171.56;4834649;29;20040;-80
2023/05/22 03:19:09;;;;;;;28.42;23.52;;;;;;;15.77;89.27;101185.16;4830618;29;20510;-80
2023/05/22 03:21:35;;;;;;;35.30;26.50;;;;;;;15.72;89.51;101179.56;4836517;29;20033;-80
2023/05/22 03:24:00;;;;;;;34.92;26.60;;;;;;;15.67;89.41;101179.41;4827516;29;20026;-81
2023/05/22 03:26:29;;;;;;;33.08;26.05;;;;;;;15.67;89.91;101182.13;4826952;29;20044;-81
2023/05/22 03:28:55;;;;;;;31.73;25.90;;;;;;;15.67;89.90;101182.13;4826599;29;20034;-81
2023/05/22 03:31:21;;;;;;;33.67;25.65;;;;;;;15.64;89.95;101180.66;4832370;29;20511;-81
2023/05/22 03:33:47;;;;;;;32.03;24.77;;;;;;;15.60;89.98;101174.84;4831656;29;20103;-81
2023/05/22 03:36:12;;;;;;;34.28;26.48;;;;;;;15.59;90.04;101175.09;4829170;29;20030;-80
2023/05/22 03:38:37;;;;;;;30.20;25.33;;;;;;;15.59;89.86;101175.91;4829028;29;20018;-80
2023/05/22 03:41:03;;;;;;;32.85;26.08;;;;;;;15.57;89.62;101178.00;4835382;29;20506;-81
2023/05/22 03:43:28;;;;;;;32.95;26.05;;;;;;;15.58;89.48;101176.97;4827256;29;20049;-81
2023/05/22 03:45:54;;;;;;;28.80;23.95;;;;;;;15.54;89.62;101173.03;4827366;29;20038;-80
2023/05/22 03:48:19;;;;;;;34.03;25.73;;;;;;;15.51;89.73;101173.50;4819754;29;20046;-80
2023/05/22 03:50:45;;;;;;;28.35;22.95;;;;;;;15.51;89.27;101173.50;4826831;29;20044;-81
2023/05/22 03:53:10;;;;;;;27.08;23.50;;;;;;;15.54;89.28;101172.22;4834510;29;20041;-81
2023/05/22 03:55:36;;;;;;;27.48;22.33;;;;;;;15.53;89.00;101165.94;4829468;29;20053;-81
2023/05/22 03:58:01;;;;;;;26.90;22.63;;;;;;;15.56;89.02;101164.69;4833220;29;20067;-81
2023/05/22 04:00:26;;;;;;;29.27;23.98;;;;;;;15.57;88.65;101167.16;4833745;29;20036;-81
2023/05/22 04:02:53;;;;;;;27.00;22.35;;;;;;;15.59;88.72;101159.63;4827600;29;20030;-80
2023/05/22 04:05:18;;;;;;;27.42;22.88;;;;;;;15.58;89.14;101157.16;4827998;29;20056;-84
2023/05/22 04:07:44;;;;;;;29.17;24.10;;;;;;;15.60;89.09;101166.72;4831851;29;20479;-84
2023/05/22 04:10:10;;;;;;;28.35;23.58;;;;;;;15.60;89.25;101168.63;4821930;29;20072;-79
2023/05/22 04:12:38;;;;;;;30.30;23.92;;;;;;;15.57;89.45;101161.72;4829307;29;20042;-84
2023/05/22 04:15:04;;;;;;;28.42;23.17;;;;;;;15.57;89.08;101160.91;4834253;29;20064;-85
2023/05/22 04:17:32;;;;;;;31.50;24.20;;;;;;;15.54;89.04;101159.47;4834501;29;20046;-81
2023/05/22 04:19:59;;;;;;;29.08;23.90;;;;;;;15.53;89.16;101155.09;4829447;29;20035;-80
2023/05/22 04:22:26;;;;;;;32.55;24.00;;;;;;;15.52;89.06;101156.16;4823188;29;20038;-81
2023/05/22 04:24:55;;;;;;;28.60;23.77;;;;;;;15.52;89.04;101149.91;4816879;29;20037;-80
2023/05/22 04:27:21;;;;;;;25.70;22.90;;;;;;;15.53;89.21;101155.09;4838405;24;20165;-85
2023/05/22 04:29:49;;;;;;;25.23;21.98;;;;;;;15.54;88.93;101156.75;4831444;29;20046;-82
2023/05/22 04:32:20;;;;;;;27.67;24.10;;;;;;;15.55;89.02;101163.84;4833244;29;20037;-83
2023/05/22 04:34:49;;;;;;;30.40;23.58;;;;;;;15.58;89.03;101168.00;4827204;29;20042;-83
2023/05/22 04:37:17;;;;;;;27.38;23.55;;;;;;;15.56;88.94;101162.78;4834923;29;20034;-82
2023/05/22 04:39:44;;;;;;;26.10;22.20;;;;;;;15.54;89.22;101158.66;4824165;29;20133;-82
2023/05/22 04:42:10;;;;;;;27.13;23.08;;;;;;;15.58;88.95;101163.41;4834465;29;20030;-82
2023/05/22 04:44:37;;;;;;;26.27;22.10;;;;;;;15.64;88.69;101163.56;4839425;29;20038;-82
2023/05/22 04:47:03;;;;;;;24.80;21.58;;;;;;;15.64;88.42;101160.84;4832086;29;20042;-83
2023/05/22 04:49:28;;;;;;;29.08;22.40;;;;;;;15.64;88.02;101155.44;4832523;29;20030;-83
2023/05/22 04:52:03;;;;;;;26.10;22.55;;;;;;;15.70;88.18;101165.41;4816487;29;20584;-84
2023/05/22 04:54:32;;;;;;;26.30;21.55;;;;;;;15.79;88.12;101164.03;4839973;29;20036;-84
2023/05/22 04:56:58;;;;;;;24.15;20.67;;;;;;;15.85;87.60;101152.31;4825414;29;20551;-84
2023/05/22 04:59:25;;;;;;;26.58;22.83;;;;;;;15.95;86.93;101162.66;4834782;29;20030;-84
2023/05/22 05:01:56;;;;;;;23.88;21.33;;;;;;;16.07;86.54;101154.56;4834731;29;20118;-84
2023/05/22 05:04:21;;;;;;;24.67;20.52;;;;;;;16.24;86.23;101159.44;4837102;29;20022;-84
2023/05/22 05:06:48;;;;;;;24.23;21.05;;;;;;;16.38;85.23;101158.19;4835802;29;20038;-84
2023/05/22 05:09:14;;;;;;;23.95;21.30;;;;;;;16.53;84.79;101157.78;4839302;29;20034;-84
2023/05/22 05:11:39;;;;;;;24.77;20.88;;;;;;;16.63;84.87;101151.78;4831164;29;20029;-84
2023/05/22 05:14:06;;;;;;;24.08;21.58;;;;;;;16.73;83.95;101162.97;4830129;29;20059;-84
2023/05/22 05:16:31;;;;;;;27.80;21.33;;;;;;;16.80;83.78;101168.31;4826192;29;20050;-84
2023/05/22 05:18:56;;;;;;;25.83;22.33;;;;;;;16.85;84.31;101167.59;4831100;29;20038;-84
2023/05/22 05:21:26;;;;;;;24.92;22.15;;;;;;;16.86;84.64;101174.69;4838682;29;20030;-83
2023/05/22 05:23:55;;;;;;;25.05;22.45;;;;;;;16.95;84.45;101182.34;4834242;29;20029;-84
2023/05/22 05:26:22;;;;;;;25.75;22.63;;;;;;;16.99;84.44;101177.25;4834837;29;20054;-84
2023/05/22 05:28:48;;;;;;;25.75;23.05;;;;;;;17.04;84.38;101188.28;4831467;29;20045;-84
2023/05/22 05:31:13;;;;;;;23.85;21.08;;;;;;;17.12;83.40;101198.00;4837104;29;20030;-84
2023/05/22 05:33:39;;;;;;;22.80;20.40;;;;;;;17.14;82.89;101201.31;4831431;29;20140;-85
2023/05/22 05:36:04;;;;;;;28.63;22.17;;;;;;;17.12;83.33;101198.81;4838068;24;20034;-84
2023/05/22 05:38:30;;;;;;;25.52;20.90;;;;;;;17.16;83.72;101198.34;4818788;29;20042;-84
2023/05/22 05:40:55;;;;;;;22.95;20.52;;;;;;;17.27;82.47;101206.53;4829918;29;20117;-85
2023/05/22 05:43:22;;;;;;;24.42;21.83;;;;;;;17.21;82.24;101203.94;4833404;29;20491;-85
2023/05/22 05:45:47;;;;;;;24.73;22.02;;;;;;;17.23;81.97;101199.91;4829431;29;20038;-85
2023/05/22 05:48:18;;;;;;;24.25;21.65;;;;;;;17.49;82.32;101202.44;4833123;29;20045;-85
2023/05/22 05:50:44;;;;;;;24.30;21.15;;;;;;;17.65;81.93;101207.19;4829295;29;20030;-84
2023/05/22 05:53:12;;;;;;;24.08;21.40;;;;;;;17.67;80.57;101204.25;4824534;29;20042;-85
2023/05/22 05:55:37;;;;;;;24.75;21.95;;;;;;;17.65;80.29;101215.34;4842482;29;20073;-84
2023/05/22 05:58:03;;;;;;;22.98;20.58;;;;;;;17.64;80.93;101212.88;4808947;29;20041;-85
2023/05/22 06:00:28;;;;;;;25.80;21.40;;;;;;;17.63;80.31;101212.06;4829589;29;20144;-85
2023/05/22 06:02:54;;;;;;;23.58;21.00;;;;;;;17.60;80.90;101212.53;4823825;29;20078;-84
2023/05/22 06:05:20;;;;;;;25.38;22.23;;;;;;;17.49;81.39;101211.44;4813886;29;20462;-82
2023/05/22 06:07:47;;;;;;;24.77;21.35;;;;;;;17.46;81.84;101216.53;4839506;29;20532;-85
2023/05/22 06:10:12;;;;;;;23.38;20.88;;;;;;;17.47;81.88;101212.75;4836943;29;20037;-82
2023/05/22 06:12:41;;;;;;;22.90;20.40;;;;;;;17.62;82.06;101207.69;4833978;29;20395;-87
2023/05/22 06:15:07;;;;;;;23.13;20.73;;;;;;;17.83;80.94;101214.41;4830483;29;20037;-86
2023/05/22 06:17:54;;;;;;;23.38;20.67;;;;;;;18.05;80.69;101215.75;4828598;29;20030;-87
2023/05/22 06:20:20;;;;;;;22.10;19.70;;;;;;;18.10;79.46;101216.69;4848368;24;20017;-86
2023/05/22 06:23:16;;;;;;;22.67;19.17;;;;;;;18.28;79.70;101209.41;4816708;29;20038;-89
2023/05/22 06:25:42;;;;;;;22.10;19.58;;;;;;;18.42;79.06;101212.72;4832533;29;20067;-88
2023/05/22 06:28:33;;;;;;;22.88;19.25;;;;;;;18.60;77.63;101211.75;4831352;29;20157;-87
2023/05/22 06:31:14;;;;;;;22.88;19.90;;;;;;;18.65;78.03;101214.53;4800120;29;20550;-88
2023/05/22 06:33:58;;;;;;;23.25;19.88;;;;;;;18.86;77.50;101210.34;4836177;29;20053;-88
2023/05/22 06:36:56;;;;;;;23.10;20.27;;;;;;;18.98;77.88;101214.94;4826864;29;20030;-88
2023/05/22 06:39:30;;;;;;;21.52;19.30;;;;;;;19.16;76.06;101214.72;4825842;29;20493;-88
2023/05/22 06:42:18;;;;;;;21.83;19.63;;;;;;;19.32;75.58;101214.97;4825794;29;20045;-88
2023/05/22 06:44:58;;;;;;;23.60;20.00;;;;;;;19.50;74.79;101220.19;4834404;29;20038;-89
2023/05/22 06:47:23;;;;;;;24.65;20.73;;;;;;;19.85;73.83;101221.03;4823328;29;20030;-87
2023/05/22 06:49:58;;;;;;;23.38;20.98;;;;;;;20.49;72.91;101224.34;4815003;29;20057;-85
2023/05/22 06:52:55;;;;;;;22.27;19.88;;;;;;;21.18;70.00;101225.69;4834504;29;20432;-87
2023/05/22 06:55:32;;;;;;;22.00;19.67;;;;;;;21.90;67.62;101237.22;4831741;29;20080;-86
2023/05/22 06:57:58;;;;;;;21.05;18.85;;;;;;;22.63;67.62;101240.34;4837163;29;20045;-87
2023/05/22 07:00:32;;;;;;;21.50;19.30;;;;;;;23.34;62.92;101236.13;4838817;29;20497;-84
2023/05/22 07:03:22;;;;;;;24.20;20.13;;;;;;;23.74;61.84;101237.22;4835045;29;20079;-84
2023/05/22 07:05:48;;;;;;;23.50;20.95;;;;;;;23.36;62.08;101244.94;4841717;29;20117;-86
2023/05/22 07:11:57;;;;;;;21.13;19.00;;;;;;;24.18;61.36;101248.75;4828568;29;20527;-85
2023/05/22 07:14:41;;;;;;;22.08;19.92;;;;;;;24.74;57.04;101235.84;4827173;29;20031;-85
2023/05/22 07:17:06;;;;;;;22.27;20.02;;;;;;;24.94;59.47;101246.75;4833806;29;20030;-87
2023/05/22 07:19:32;;;;;;;21.98;19.77;;;;;;;26.09;55.10;101241.97;4826406;29;20022;-86
2023/05/22 07:22:17;;;;;;;21.80;19.50;;;;;;;26.80;54.45;101252.44;4838659;29;20447;-86
2023/05/22 07:24:45;;;;;;;21.38;19.17;;;;;;;27.32;52.17;101249.75;4816581;29;20061;-87
2023/05/22 07:27:11;;;;;;;20.15;18.20;;;;;;;27.78;47.63;101247.34;4816235;29;20504;-86
2023/05/22 07:29:52;;;;;;;19.50;17.60;;;;;;;27.88;52.17;101252.69;4820297;29;20026;-86
2023/05/22 07:32:17;;;;;;;19.30;17.30;;;;;;;28.71;49.02;101253.81;4826402;29;20027;-86
2023/05/22 07:34:43;;;;;;;19.95;17.95;;;;;;;29.27;43.79;101250.91;4827212;29;20042;-86
2023/05/22 07:37:21;;;;;;;20.50;18.58;;;;;;;28.79;49.42;101252.28;4819762;29;20031;-87
2023/05/22 07:40:08;;;;;;;19.85;17.80;;;;;;;28.98;48.40;101260.44;4826150;29;20037;-87
2023/05/22 07:42:34;;;;;;;19.08;17.27;;;;;;;27.99;46.27;101254.13;4825744;29;20062;-87
2023/05/22 07:45:03;;;;;;;18.73;16.92;;;;;;;28.76;46.73;101264.81;4819519;29;20057;-86
2023/05/22 07:47:28;;;;;;;19.08;17.27;;;;;;;29.47;45.66;101261.53;4824910;29;20039;-87
2023/05/22 07:49:54;;;;;;;18.05;16.45;;;;;;;29.44;41.83;101261.31;4820537;29;20158;-87
2023/05/22 07:52:37;;;;;;;17.75;16.00;;;;;;;30.38;42.93;101261.28;4820684;29;20506;-87
2023/05/22 07:55:03;;;;;;;18.85;17.05;;;;;;;29.59;47.14;101262.88;4826066;29;20133;-87
2023/05/22 07:57:28;;;;;;;19.55;17.55;;;;;;;29.19;44.06;101261.59;4819775;29;20554;-87
2023/05/22 07:59:58;;;;;;;18.90;17.20;;;;;;;30.08;45.12;101261.03;4820683;29;20035;-87
2023/05/22 08:02:23;;;;;;;20.13;18.10;;;;;;;29.54;44.50;101260.22;4820013;29;20042;-87
2023/05/22 08:05:21;;;;;;;18.02;16.33;;;;;;;28.51;47.62;101268.91;4819512;29;20035;-88
2023/05/22 08:08:01;;;;;;;16.50;14.73;;;;;;;29.65;42.96;101261.63;4744802;30;20147;-87
2023/05/22 08:10:27;;;;;;;14.88;13.38;;;;;;;30.25;41.10;101251.97;4766698;29;20403;-87
2023/05/22 08:12:52;;;;;;;16.80;14.68;;;;;;;30.76;38.58;101259.09;4820536;29;20042;-87
2023/05/22 08:15:18;;;;;;;15.65;14.20;;;;;;;30.52;40.97;101250.06;4811671;29;20482;-87
2023/05/22 08:17:49;;;;;;;14.68;13.20;;;;;;;31.17;39.16;101259.78;4825771;29;20038;-87
2023/05/22 08:20:20;;;;;;;13.90;12.50;;;;;;;31.00;39.51;101250.28;4841546;24;20465;-87
2023/05/22 08:22:48;;;;;;;13.10;11.82;;;;;;;31.17;37.67;101257.84;4823553;29;20397;-87
2023/05/22 08:25:14;;;;;;;14.95;13.45;;;;;;;31.14;36.85;101255.72;4822628;29;20479;-87
2023/05/22 08:27:39;;;;;;;13.27;11.88;;;;;;;31.51;39.46;101250.59;4822319;29;20118;-87
2023/05/22 08:30:25;;;;;;;14.30;12.95;;;;;;;31.93;37.43;101254.78;4823791;29;20039;-87
2023/05/22 08:32:50;;;;;;;15.15;13.75;;;;;;;31.64;36.22;101248.78;4814140;29;20559;-86
2023/05/22 08:35:16;;;;;;;13.35;11.98;;;;;;;31.07;40.25;101247.00;4823699;29;20038;-86
2023/05/22 08:37:41;;;;;;;12.98;11.68;;;;;;;32.31;36.67;101248.38;4821919;29;20127;-87
2023/05/22 08:40:11;;;;;;;13.32;12.13;;;;;;;32.77;38.06;101243.81;4822202;29;20043;-86
2023/05/22 08:42:36;;;;;;;15.23;13.82;;;;;;;32.90;34.68;101246.69;4823058;29;20060;-86
2023/05/22 08:45:02;;;;;;;16.15;13.85;;;;;;;32.34;35.29;101247.69;4807128;29;20483;-86
2023/05/22 08:47:27;;;;;;;15.25;13.75;;;;;;;32.41;36.94;101249.94;4793120;29;20121;-86
2023/05/22 08:49:56;;;;;;;15.65;13.95;;;;;;;33.04;35.40;101243.63;4822616;29;20071;-86
2023/05/22 08:52:32;;;;;;;15.23;13.82;;;;;;;33.26;35.13;101248.00;4822914;29;20049;-87
2023/05/22 08:54:57;;;;;;;15.57;13.98;;;;;;;32.56;34.71;101237.41;4813661;29;20037;-86
2023/05/22 08:57:23;;;;;;;16.48;14.80;;;;;;;32.31;35.32;101248.38;4821578;29;20030;-86
2023/05/22 08:59:48;;;;;;;16.17;14.70;;;;;;;32.85;37.17;101239.34;4795250;29;20498;-86
2023/05/22 09:02:13;;;;;;;16.20;14.50;;;;;;;33.54;35.03;101241.81;4797630;29;20059;-87
2023/05/22 09:07:14;;;;;;;14.15;12.75;;;;;;;32.13;34.19;101239.28;5795416;24;20077;-84
2023/05/22 09:09:40;;;;;;;14.55;13.25;;;;;;;32.56;35.27;101231.84;4837083;29;20042;-85
2023/05/22 09:12:08;;;;;;;13.75;12.55;;;;;;;32.90;35.06;101235.53;4819151;29;20030;-85
2023/05/22 09:14:42;;;;;;;14.55;13.05;;;;;;;32.87;35.09;101234.25;4827419;29;20064;-85
2023/05/22 09:17:10;;;;;;;16.35;14.77;;;;;;;33.26;34.63;101237.69;4815268;29;20045;-85
2023/05/22 09:19:35;;;;;;;15.50;13.73;;;;;;;33.97;34.48;101232.16;4826743;29;20519;-86
2023/05/22 09:22:06;;;;;;;18.23;16.50;;;;;;;32.57;35.49;101222.31;4825106;29;20038;-84
2023/05/22 09:24:58;;;;;;;17.20;15.50;;;;;;;32.57;35.21;101234.25;4832722;29;20155;-85
2023/05/22 09:27:23;;;;;;;15.00;13.60;;;;;;;33.31;33.39;101230.22;4801466;29;20031;-86
2023/05/22 09:30:05;;;;;;;17.98;16.27;;;;;;;31.19;37.24;101221.34;4820354;29;20138;-85
2023/05/22 09:32:31;;;;;;;16.95;15.35;;;;;;;32.19;36.60;101229.59;4810259;29;20119;-84
2023/05/22 09:38:20;;;;;;;18.08;16.27;;;;;;;33.43;35.18;101226.69;4822824;29;20133;-85
2023/05/22 09:41:04;;;;;;;18.60;16.80;;;;;;;33.62;32.23;101220.59;4803990;29;20050;-85
2023/05/22 09:43:29;;;;;;;20.60;18.33;;;;;;;31.11;36.83;101214.63;4806548;29;20023;-86
2023/05/22 09:45:56;;;;;;;18.33;16.63;;;;;;;32.27;36.02;101217.59;4805076;29;20151;-85
2023/05/22 09:48:58;;;;;;;16.30;14.60;;;;;;;33.72;34.79;101225.69;4818113;29;20030;-84
2023/05/22 09:51:36;;;;;;;18.08;16.27;;;;;;;33.44;32.37;101236.69;4818470;29;20103;-84
2023/05/22 09:54:02;;;;;;;17.80;16.10;;;;;;;32.64;35.09;101223.41;4803939;24;20033;-85
2023/05/22 09:56:28;;;;;;;16.88;15.27;;;;;;;33.50;33.66;101224.16;4833310;29;20347;-85
2023/05/22 09:58:53;;;;;;;16.77;15.18;;;;;;;34.24;33.39;101224.22;4794203;29;20118;-84
2023/05/22 10:01:18;;;;;;;19.60;17.70;;;;;;;33.24;33.08;101222.41;4806736;29;20478;-85
2023/05/22 10:03:44;;;;;;;19.27;17.35;;;;;;;33.28;33.37;101223.38;4824393;29;20049;-85
2023/05/22 10:07:06;;;;;;;16.63;15.02;;;;;;;33.88;32.85;101211.06;4822535;29;20034;-84
2023/05/22 10:09:33;;;;;;;17.23;15.63;;;;;;;33.83;33.05;101226.06;4832886;29;20042;-84
2023/05/22 10:12:04;;;;;;;16.58;14.98;;;;;;;33.89;31.19;101213.50;4828450;24;20050;-84
2023/05/22 10:14:57;;;;;;;16.55;14.85;;;;;;;33.52;34.60;101221.84;4809922;29;20037;-85
2023/05/22 10:17:22;;;;;;;16.50;14.98;;;;;;;34.26;31.59;101219.09;4814894;29;20035;-85
2023/05/22 10:19:52;;;;;;;14.85;13.45;;;;;;;35.50;30.17;101224.31;4801504;29;20030;-85
2023/05/22 10:22:29;;;;;;;14.80;13.27;;;;;;;36.05;29.26;101226.50;4801411;29;20041;-83
2023/05/22 10:24:55;;;;;;;15.68;14.27;;;;;;;35.76;28.44;101217.38;4812755;29;20031;-83
2023/05/22 10:27:24;;;;;;;15.60;14.10;;;;;;;35.05;29.79;101219.88;4808284;29;20032;-85
2023/05/22 10:30:34;;;;;;;17.05;15.35;;;;;;;34.11;31.43;101211.41;4815417;29;20038;-85
2023/05/22 10:33:06;;;;;;;16.70;15.13;;;;;;;33.21;33.17;101206.38;4799746;29;20053;-83
2023/05/22 10:38:54;;;;;;;16.63;15.13;;;;;;;34.05;30.91;101210.84;4812680;29;20165;-85
2023/05/22 10:41:20;;;;;;;16.98;15.35;;;;;;;34.04;30.37;101202.84;4817299;29;20045;-85
2023/05/22 10:43:55;;;;;;;16.17;14.48;;;;;;;34.22;31.13;101201.41;4800505;29;20057;-85
2023/05/22 10:46:20;;;;;;;14.57;12.70;;;;;;;34.43;29.65;101203.25;4812279;29;20123;-85
2023/05/22 10:48:51;;;;;;;16.13;14.57;;;;;;;34.03;30.23;101201.19;4812436;29;20026;-84
2023/05/22 10:51:35;;;;;;;15.48;13.88;;;;;;;34.69;31.76;101202.84;4810605;29;20146;-85
2023/05/22 10:54:04;;;;;;;15.00;13.57;;;;;;;35.44;28.84;101200.56;4790264;29;20038;-87
2023/05/22 10:56:39;;;;;;;12.93;11.57;;;;;;;35.30;29.53;101194.56;4811076;29;20041;-87
2023/05/22 10:59:06;;;;;;;16.67;14.98;;;;;;;35.62;28.09;101197.41;4809509;29;20038;-85
2023/05/22 11:01:34;;;;;;;15.02;13.45;;;;;;;35.29;30.13;101201.34;4813837;29;20051;-85
2023/05/22 11:04:09;;;;;;;14.60;12.98;;;;;;;34.09;30.16;101202.56;4809952;29;20034;-85
2023/05/22 11:06:38;;;;;;;;;;;;;;;33.89;31.11;101198.72;4804969;29;20397;-85
2023/05/22 11:09:30;;;;;;;17.10;15.40;;;;;;;34.52;29.18;101201.16;4806805;29;20412;-85
2023/05/22 11:12:18;;;;;;;13.80;12.40;;;;;;;35.04;29.74;101191.06;4818876;29;20045;-85
2023/05/22 11:15:01;;;;;;;16.92;15.20;;;;;;;32.74;32.25;101190.72;4827224;29;20046;-84
2023/05/22 11:17:30;;;;;;;14.23;12.82;;;;;;;33.71;32.02;101196.16;4829490;29;20767;-86
2023/05/22 11:20:21;;;;;;;15.23;13.65;;;;;;;34.14;30.96;101191.16;4831296;29;20061;-85
2023/05/22 11:22:55;;;;;;;14.27;12.77;;;;;;;34.16;29.91;101189.66;4831141;29;20038;-85
2023/05/22 11:25:31;;;;;;;;;;;;;;;34.80;29.25;101196.75;4830233;29;20053;-85
2023/05/22 11:27:56;;;;;;;11.70;10.60;;;;;;;35.08;28.99;101196.78;4823914;29;20401;-86
2023/05/22 11:30:24;;;;;;;13.65;12.35;;;;;;;34.71;28.86;101197.69;4828939;29;20034;-86
2023/05/22 11:32:50;;;;;;;11.30;10.20;;;;;;;35.12;28.29;101194.91;4807596;29;20109;-86
2023/05/22 11:35:28;;;;;;;14.90;13.30;;;;;;;34.61;28.86;101187.84;4807799;29;20031;-86